sensor_id;sensor_type;location;lat;lon;timestamp;P1;durP1;ratioP1;P2;durP2;ratioP2
18174;SDS011;9212;50.894;16.714;2023-07-30T00:01:22;2.20;;;1.70;;
18174;SDS011;9212;50.894;16.714;2023-07-30T00:03:51;1.70;;;1.60;;
18174;SDS011;9212;50.894;16.714;2023-07-30T00:06:18;3.03;;;2.00;;
18174;SDS011;9212;50.894;16.714;2023-07-30T00:08:45;1.50;;;1.40;;
18174;SDS011;9212;50.894;16.714;2023-07-30T00:11:12;2.20;;;1.70;;
18174;SDS011;9212;50.894;16.714;2023-07-30T00:13:40;4.63;;;1.57;;
18174;SDS011;9212;50.894;16.714;2023-07-30T00:16:07;1.50;;;1.40;;
18174;SDS011;9212;50.894;16.714;2023-07-30T00:18:34;2.37;;;1.50;;
18174;SDS011;9212;50.894;16.714;2023-07-30T00:21:03;1.90;;;1.70;;
18174;SDS011;9212;50.894;16.714;2023-07-30T00:23:30;1.90;;;1.57;;
18174;SDS011;9212;50.894;16.714;2023-07-30T00:25:57;2.07;;;1.70;;
18174;SDS011;9212;50.894;16.714;2023-07-30T00:28:24;1.60;;;1.50;;
18174;SDS011;9212;50.894;16.714;2023-07-30T00:30:51;4.53;;;1.60;;
18174;SDS011;9212;50.894;16.714;2023-07-30T00:33:19;4.17;;;1.80;;
18174;SDS011;9212;50.894;16.714;2023-07-30T00:35:46;1.80;;;1.70;;
18174;SDS011;9212;50.894;16.714;2023-07-30T00:38:15;2.93;;;1.80;;
18174;SDS011;9212;50.894;16.714;2023-07-30T00:40:43;3.20;;;1.67;;
18174;SDS011;9212;50.894;16.714;2023-07-30T00:43:10;3.00;;;1.90;;
18174;SDS011;9212;50.894;16.714;2023-07-30T00:45:38;2.00;;;1.73;;
18174;SDS011;9212;50.894;16.714;2023-07-30T00:48:07;2.03;;;1.63;;
18174;SDS011;9212;50.894;16.714;2023-07-30T00:50:34;1.50;;;1.40;;
18174;SDS011;9212;50.894;16.714;2023-07-30T00:53:01;1.80;;;1.53;;
18174;SDS011;9212;50.894;16.714;2023-07-30T00:55:30;1.60;;;1.50;;
18174;SDS011;9212;50.894;16.714;2023-07-30T00:57:57;2.97;;;2.00;;
18174;SDS011;9212;50.894;16.714;2023-07-30T01:00:25;2.13;;;1.63;;
18174;SDS011;9212;50.894;16.714;2023-07-30T01:02:54;1.92;;;1.70;;
18174;SDS011;9212;50.894;16.714;2023-07-30T01:05:22;2.40;;;1.70;;
18174;SDS011;9212;50.894;16.714;2023-07-30T01:07:49;5.70;;;1.67;;
18174;SDS011;9212;50.894;16.714;2023-07-30T01:10:16;2.03;;;1.80;;
18174;SDS011;9212;50.894;16.714;2023-07-30T01:12:45;2.30;;;2.08;;
18174;SDS011;9212;50.894;16.714;2023-07-30T01:15:12;3.08;;;1.83;;
18174;SDS011;9212;50.894;16.714;2023-07-30T01:17:40;4.07;;;1.80;;
18174;SDS011;9212;50.894;16.714;2023-07-30T01:20:07;4.25;;;1.60;;
18174;SDS011;9212;50.894;16.714;2023-07-30T01:22:36;1.83;;;1.70;;
18174;SDS011;9212;50.894;16.714;2023-07-30T01:25:04;1.67;;;1.35;;
18174;SDS011;9212;50.894;16.714;2023-07-30T01:27:31;3.42;;;1.70;;
18174;SDS011;9212;50.894;16.714;2023-07-30T01:30:06;1.50;;;1.40;;
18174;SDS011;9212;50.894;16.714;2023-07-30T01:32:35;2.45;;;1.80;;
18174;SDS011;9212;50.894;16.714;2023-07-30T01:35:03;3.90;;;1.52;;
18174;SDS011;9212;50.894;16.714;2023-07-30T01:37:31;2.37;;;1.30;;
18174;SDS011;9212;50.894;16.714;2023-07-30T01:40:00;4.28;;;1.77;;
18174;SDS011;9212;50.894;16.714;2023-07-30T01:42:28;2.47;;;1.70;;
18174;SDS011;9212;50.894;16.714;2023-07-30T01:44:55;2.15;;;1.65;;
18174;SDS011;9212;50.894;16.714;2023-07-30T01:47:23;4.00;;;1.83;;
18174;SDS011;9212;50.894;16.714;2023-07-30T01:49:50;2.75;;;1.70;;
18174;SDS011;9212;50.894;16.714;2023-07-30T01:52:17;3.58;;;1.70;;
18174;SDS011;9212;50.894;16.714;2023-07-30T01:54:44;5.03;;;1.65;;
18174;SDS011;9212;50.894;16.714;2023-07-30T01:57:13;1.70;;;1.52;;
18174;SDS011;9212;50.894;16.714;2023-07-30T01:59:40;5.70;;;2.15;;
18174;SDS011;9212;50.894;16.714;2023-07-30T02:02:07;3.92;;;1.63;;
18174;SDS011;9212;50.894;16.714;2023-07-30T02:04:35;3.00;;;1.73;;
18174;SDS011;9212;50.894;16.714;2023-07-30T02:07:02;1.88;;;1.45;;
18174;SDS011;9212;50.894;16.714;2023-07-30T02:09:29;2.57;;;1.70;;
18174;SDS011;9212;50.894;16.714;2023-07-30T02:11:57;4.50;;;1.65;;
18174;SDS011;9212;50.894;16.714;2023-07-30T02:14:25;2.50;;;1.63;;
18174;SDS011;9212;50.894;16.714;2023-07-30T02:16:52;1.55;;;1.40;;
18174;SDS011;9212;50.894;16.714;2023-07-30T02:19:20;2.65;;;1.52;;
18174;SDS011;9212;50.894;16.714;2023-07-30T02:21:47;1.40;;;1.30;;
18174;SDS011;9212;50.894;16.714;2023-07-30T02:24:14;3.33;;;1.52;;
18174;SDS011;9212;50.894;16.714;2023-07-30T02:26:41;1.83;;;1.67;;
18174;SDS011;9212;50.894;16.714;2023-07-30T02:29:09;5.32;;;1.98;;
18174;SDS011;9212;50.894;16.714;2023-07-30T02:31:37;2.53;;;1.63;;
18174;SDS011;9212;50.894;16.714;2023-07-30T02:34:04;3.63;;;1.45;;
18174;SDS011;9212;50.894;16.714;2023-07-30T02:36:33;1.75;;;1.52;;
18174;SDS011;9212;50.894;16.714;2023-07-30T02:39:00;1.60;;;1.50;;
18174;SDS011;9212;50.894;16.714;2023-07-30T02:41:27;2.33;;;1.83;;
18174;SDS011;9212;50.894;16.714;2023-07-30T02:43:54;1.55;;;1.45;;
18174;SDS011;9212;50.894;16.714;2023-07-30T02:46:22;3.13;;;1.60;;
18174;SDS011;9212;50.894;16.714;2023-07-30T02:48:50;1.95;;;1.63;;
18174;SDS011;9212;50.894;16.714;2023-07-30T02:51:17;2.45;;;1.40;;
18174;SDS011;9212;50.894;16.714;2023-07-30T02:53:46;3.53;;;1.63;;
18174;SDS011;9212;50.894;16.714;2023-07-30T02:56:13;1.67;;;1.58;;
18174;SDS011;9212;50.894;16.714;2023-07-30T02:58:41;3.53;;;1.88;;
18174;SDS011;9212;50.894;16.714;2023-07-30T03:01:08;2.10;;;1.70;;
18174;SDS011;9212;50.894;16.714;2023-07-30T03:03:35;2.33;;;2.13;;
18174;SDS011;9212;50.894;16.714;2023-07-30T03:06:04;1.63;;;1.50;;
18174;SDS011;9212;50.894;16.714;2023-07-30T03:08:32;4.55;;;2.08;;
18174;SDS011;9212;50.894;16.714;2023-07-30T03:11:01;2.10;;;1.90;;
18174;SDS011;9212;50.894;16.714;2023-07-30T03:13:28;1.85;;;1.70;;
18174;SDS011;9212;50.894;16.714;2023-07-30T03:15:55;4.20;;;1.60;;
18174;SDS011;9212;50.894;16.714;2023-07-30T03:18:22;3.28;;;1.85;;
18174;SDS011;9212;50.894;16.714;2023-07-30T03:20:50;1.87;;;1.70;;
18174;SDS011;9212;50.894;16.714;2023-07-30T03:23:18;4.20;;;2.10;;
18174;SDS011;9212;50.894;16.714;2023-07-30T03:25:46;5.93;;;1.77;;
18174;SDS011;9212;50.894;16.714;2023-07-30T03:28:14;4.00;;;1.67;;
18174;SDS011;9212;50.894;16.714;2023-07-30T03:30:41;2.67;;;1.90;;
18174;SDS011;9212;50.894;16.714;2023-07-30T03:33:08;6.78;;;2.00;;
18174;SDS011;9212;50.894;16.714;2023-07-30T03:35:35;2.53;;;1.92;;
18174;SDS011;9212;50.894;16.714;2023-07-30T03:38:02;1.88;;;1.77;;
18174;SDS011;9212;50.894;16.714;2023-07-30T03:40:31;3.35;;;1.50;;
18174;SDS011;9212;50.894;16.714;2023-07-30T03:42:59;5.20;;;1.63;;
18174;SDS011;9212;50.894;16.714;2023-07-30T03:45:26;2.17;;;1.98;;
18174;SDS011;9212;50.894;16.714;2023-07-30T03:47:54;1.63;;;1.52;;
18174;SDS011;9212;50.894;16.714;2023-07-30T03:50:21;3.33;;;2.13;;
18174;SDS011;9212;50.894;16.714;2023-07-30T03:52:48;2.10;;;1.85;;
18174;SDS011;9212;50.894;16.714;2023-07-30T03:55:16;1.88;;;1.77;;
18174;SDS011;9212;50.894;16.714;2023-07-30T03:57:44;2.03;;;1.92;;
18174;SDS011;9212;50.894;16.714;2023-07-30T04:00:12;3.47;;;1.65;;
18174;SDS011;9212;50.894;16.714;2023-07-30T04:02:39;3.67;;;2.08;;
18174;SDS011;9212;50.894;16.714;2023-07-30T04:05:06;2.63;;;1.83;;
18174;SDS011;9212;50.894;16.714;2023-07-30T04:07:34;1.65;;;1.55;;
18174;SDS011;9212;50.894;16.714;2023-07-30T04:10:01;3.90;;;2.20;;
18174;SDS011;9212;50.894;16.714;2023-07-30T04:12:28;3.22;;;1.92;;
18174;SDS011;9212;50.894;16.714;2023-07-30T04:14:57;4.55;;;2.03;;
18174;SDS011;9212;50.894;16.714;2023-07-30T04:17:24;3.58;;;2.00;;
18174;SDS011;9212;50.894;16.714;2023-07-30T04:19:51;1.90;;;1.75;;
18174;SDS011;9212;50.894;16.714;2023-07-30T04:22:18;8.07;;;2.17;;
18174;SDS011;9212;50.894;16.714;2023-07-30T04:24:45;2.22;;;1.80;;
18174;SDS011;9212;50.894;16.714;2023-07-30T04:27:13;1.70;;;1.60;;
18174;SDS011;9212;50.894;16.714;2023-07-30T04:29:40;2.13;;;1.80;;
18174;SDS011;9212;50.894;16.714;2023-07-30T04:32:09;2.55;;;1.80;;
18174;SDS011;9212;50.894;16.714;2023-07-30T04:34:36;3.55;;;1.75;;
18174;SDS011;9212;50.894;16.714;2023-07-30T04:37:04;3.03;;;2.05;;
18174;SDS011;9212;50.894;16.714;2023-07-30T04:39:31;2.55;;;1.85;;
18174;SDS011;9212;50.894;16.714;2023-07-30T04:41:59;5.10;;;1.98;;
18174;SDS011;9212;50.894;16.714;2023-07-30T04:44:26;4.15;;;1.80;;
18174;SDS011;9212;50.894;16.714;2023-07-30T04:46:53;3.45;;;2.70;;
18174;SDS011;9212;50.894;16.714;2023-07-30T04:49:22;3.80;;;2.83;;
18174;SDS011;9212;50.894;16.714;2023-07-30T04:51:49;2.78;;;2.00;;
18174;SDS011;9212;50.894;16.714;2023-07-30T04:54:17;2.25;;;2.05;;
18174;SDS011;9212;50.894;16.714;2023-07-30T04:56:44;2.35;;;2.15;;
18174;SDS011;9212;50.894;16.714;2023-07-30T04:59:11;2.75;;;2.20;;
18174;SDS011;9212;50.894;16.714;2023-07-30T05:01:38;2.45;;;1.90;;
18174;SDS011;9212;50.894;16.714;2023-07-30T05:04:06;1.88;;;1.60;;
18174;SDS011;9212;50.894;16.714;2023-07-30T05:06:34;4.20;;;3.78;;
18174;SDS011;9212;50.894;16.714;2023-07-30T05:09:02;6.68;;;3.60;;
18174;SDS011;9212;50.894;16.714;2023-07-30T05:11:30;5.15;;;3.70;;
18174;SDS011;9212;50.894;16.714;2023-07-30T05:13:57;2.53;;;2.33;;
18174;SDS011;9212;50.894;16.714;2023-07-30T05:16:25;1.92;;;1.60;;
18174;SDS011;9212;50.894;16.714;2023-07-30T05:18:52;3.35;;;2.00;;
18174;SDS011;9212;50.894;16.714;2023-07-30T05:21:19;1.90;;;1.80;;
18174;SDS011;9212;50.894;16.714;2023-07-30T05:23:48;1.73;;;1.52;;
18174;SDS011;9212;50.894;16.714;2023-07-30T05:26:15;2.92;;;1.90;;
18174;SDS011;9212;50.894;16.714;2023-07-30T05:28:43;3.90;;;1.88;;
18174;SDS011;9212;50.894;16.714;2023-07-30T05:31:10;2.17;;;1.98;;
18174;SDS011;9212;50.894;16.714;2023-07-30T05:33:37;5.70;;;2.20;;
18174;SDS011;9212;50.894;16.714;2023-07-30T05:36:04;2.00;;;1.80;;
18174;SDS011;9212;50.894;16.714;2023-07-30T05:38:31;2.80;;;1.92;;
18174;SDS011;9212;50.894;16.714;2023-07-30T05:41:01;3.38;;;2.03;;
18174;SDS011;9212;50.894;16.714;2023-07-30T05:43:29;2.25;;;2.05;;
18174;SDS011;9212;50.894;16.714;2023-07-30T05:45:56;3.42;;;1.80;;
18174;SDS011;9212;50.894;16.714;2023-07-30T05:48:23;2.15;;;1.67;;
18174;SDS011;9212;50.894;16.714;2023-07-30T05:50:50;1.92;;;1.60;;
18174;SDS011;9212;50.894;16.714;2023-07-30T05:53:18;1.77;;;1.67;;
18174;SDS011;9212;50.894;16.714;2023-07-30T05:55:45;3.53;;;1.90;;
18174;SDS011;9212;50.894;16.714;2023-07-30T05:58:14;1.80;;;1.30;;
18174;SDS011;9212;50.894;16.714;2023-07-30T06:00:41;1.67;;;1.58;;
18174;SDS011;9212;50.894;16.714;2023-07-30T06:03:08;2.00;;;1.30;;
18174;SDS011;9212;50.894;16.714;2023-07-30T06:05:38;2.85;;;1.40;;
18174;SDS011;9212;50.894;16.714;2023-07-30T06:08:06;1.40;;;1.25;;
18174;SDS011;9212;50.894;16.714;2023-07-30T06:10:34;1.20;;;1.20;;
18174;SDS011;9212;50.894;16.714;2023-07-30T06:13:01;2.60;;;1.23;;
18174;SDS011;9212;50.894;16.714;2023-07-30T06:15:30;2.40;;;1.30;;
18174;SDS011;9212;50.894;16.714;2023-07-30T06:17:57;3.45;;;1.17;;
18174;SDS011;9212;50.894;16.714;2023-07-30T06:20:25;1.50;;;1.40;;
18174;SDS011;9212;50.894;16.714;2023-07-30T06:22:53;3.15;;;1.55;;
18174;SDS011;9212;50.894;16.714;2023-07-30T06:25:20;5.72;;;1.70;;
18174;SDS011;9212;50.894;16.714;2023-07-30T06:27:47;2.15;;;1.17;;
18174;SDS011;9212;50.894;16.714;2023-07-30T06:30:15;2.05;;;1.30;;
18174;SDS011;9212;50.894;16.714;2023-07-30T06:32:43;3.53;;;1.35;;
18174;SDS011;9212;50.894;16.714;2023-07-30T06:35:11;4.75;;;2.03;;
18174;SDS011;9212;50.894;16.714;2023-07-30T06:37:38;4.43;;;1.45;;
18174;SDS011;9212;50.894;16.714;2023-07-30T06:40:06;1.23;;;1.20;;
18174;SDS011;9212;50.894;16.714;2023-07-30T06:42:33;2.63;;;1.33;;
18174;SDS011;9212;50.894;16.714;2023-07-30T06:45:00;1.05;;;1.05;;
18174;SDS011;9212;50.894;16.714;2023-07-30T06:47:28;1.60;;;1.50;;
18174;SDS011;9212;50.894;16.714;2023-07-30T06:49:56;2.75;;;1.77;;
18174;SDS011;9212;50.894;16.714;2023-07-30T06:52:23;2.28;;;1.20;;
18174;SDS011;9212;50.894;16.714;2023-07-30T06:54:50;6.22;;;1.40;;
18174;SDS011;9212;50.894;16.714;2023-07-30T06:57:18;1.50;;;1.40;;
18174;SDS011;9212;50.894;16.714;2023-07-30T06:59:45;3.35;;;1.30;;
18174;SDS011;9212;50.894;16.714;2023-07-30T07:02:13;1.50;;;1.40;;
18174;SDS011;9212;50.894;16.714;2023-07-30T07:04:40;1.52;;;1.42;;
18174;SDS011;9212;50.894;16.714;2023-07-30T07:07:08;2.58;;;1.40;;
18174;SDS011;9212;50.894;16.714;2023-07-30T07:09:36;3.80;;;1.20;;
18174;SDS011;9212;50.894;16.714;2023-07-30T07:12:03;2.88;;;1.40;;
18174;SDS011;9212;50.894;16.714;2023-07-30T07:14:30;3.58;;;1.52;;
18174;SDS011;9212;50.894;16.714;2023-07-30T07:16:57;3.70;;;1.50;;
18174;SDS011;9212;50.894;16.714;2023-07-30T07:19:25;2.65;;;1.50;;
18174;SDS011;9212;50.894;16.714;2023-07-30T07:21:52;2.75;;;1.40;;
18174;SDS011;9212;50.894;16.714;2023-07-30T07:24:20;2.20;;;1.45;;
18174;SDS011;9212;50.894;16.714;2023-07-30T07:26:48;1.70;;;1.60;;
18174;SDS011;9212;50.894;16.714;2023-07-30T07:29:15;3.67;;;1.50;;
18174;SDS011;9212;50.894;16.714;2023-07-30T07:31:42;2.90;;;1.70;;
18174;SDS011;9212;50.894;16.714;2023-07-30T07:34:09;2.35;;;1.60;;
18174;SDS011;9212;50.894;16.714;2023-07-30T07:36:37;2.40;;;1.70;;
18174;SDS011;9212;50.894;16.714;2023-07-30T07:39:04;2.50;;;1.67;;
18174;SDS011;9212;50.894;16.714;2023-07-30T07:41:32;2.67;;;1.38;;
18174;SDS011;9212;50.894;16.714;2023-07-30T07:44:00;5.93;;;1.52;;
18174;SDS011;9212;50.894;16.714;2023-07-30T07:46:27;2.03;;;1.83;;
18174;SDS011;9212;50.894;16.714;2023-07-30T07:48:55;2.25;;;1.60;;
18174;SDS011;9212;50.894;16.714;2023-07-30T07:51:22;4.22;;;1.40;;
18174;SDS011;9212;50.894;16.714;2023-07-30T07:53:49;4.00;;;1.60;;
18174;SDS011;9212;50.894;16.714;2023-07-30T07:56:17;1.50;;;1.40;;
18174;SDS011;9212;50.894;16.714;2023-07-30T07:58:46;1.77;;;1.67;;
18174;SDS011;9212;50.894;16.714;2023-07-30T08:01:13;1.50;;;1.40;;
18174;SDS011;9212;50.894;16.714;2023-07-30T08:03:40;2.60;;;1.50;;
18174;SDS011;9212;50.894;16.714;2023-07-30T08:06:07;1.50;;;1.40;;
18174;SDS011;9212;50.894;16.714;2023-07-30T08:08:35;1.23;;;1.20;;
18174;SDS011;9212;50.894;16.714;2023-07-30T08:11:04;1.65;;;1.55;;
18174;SDS011;9212;50.894;16.714;2023-07-30T08:13:32;1.50;;;1.40;;
18174;SDS011;9212;50.894;16.714;2023-07-30T08:16:01;1.20;;;1.10;;
18174;SDS011;9212;50.894;16.714;2023-07-30T08:18:28;1.50;;;1.40;;
18174;SDS011;9212;50.894;16.714;2023-07-30T08:20:55;1.20;;;1.20;;
18174;SDS011;9212;50.894;16.714;2023-07-30T08:23:23;1.52;;;1.42;;
18174;SDS011;9212;50.894;16.714;2023-07-30T08:25:50;2.72;;;1.50;;
18174;SDS011;9212;50.894;16.714;2023-07-30T08:28:17;1.30;;;1.20;;
18174;SDS011;9212;50.894;16.714;2023-07-30T08:30:44;3.40;;;1.35;;
18174;SDS011;9212;50.894;16.714;2023-07-30T08:33:13;1.23;;;1.23;;
18174;SDS011;9212;50.894;16.714;2023-07-30T08:35:41;3.60;;;1.27;;
18174;SDS011;9212;50.894;16.714;2023-07-30T08:38:08;1.65;;;1.52;;
18174;SDS011;9212;50.894;16.714;2023-07-30T08:40:35;1.48;;;1.38;;
18174;SDS011;9212;50.894;16.714;2023-07-30T08:43:02;1.52;;;1.42;;
18174;SDS011;9212;50.894;16.714;2023-07-30T08:45:30;2.10;;;1.42;;
18174;SDS011;9212;50.894;16.714;2023-07-30T08:47:58;1.00;;;1.00;;
18174;SDS011;9212;50.894;16.714;2023-07-30T08:50:27;1.42;;;1.33;;
18174;SDS011;9212;50.894;16.714;2023-07-30T08:52:55;1.55;;;1.45;;
18174;SDS011;9212;50.894;16.714;2023-07-30T08:55:22;1.42;;;1.20;;
18174;SDS011;9212;50.894;16.714;2023-07-30T08:57:52;1.42;;;1.20;;
18174;SDS011;9212;50.894;16.714;2023-07-30T09:00:19;1.67;;;1.30;;
18174;SDS011;9212;50.894;16.714;2023-07-30T09:02:49;1.20;;;1.10;;
18174;SDS011;9212;50.894;16.714;2023-07-30T09:05:18;1.27;;;1.20;;
18174;SDS011;9212;50.894;16.714;2023-07-30T09:07:47;2.08;;;1.40;;
18174;SDS011;9212;50.894;16.714;2023-07-30T09:10:14;1.25;;;1.13;;
18174;SDS011;9212;50.894;16.714;2023-07-30T09:12:41;1.30;;;1.20;;
18174;SDS011;9212;50.894;16.714;2023-07-30T09:15:09;2.78;;;1.70;;
18174;SDS011;9212;50.894;16.714;2023-07-30T09:17:37;2.10;;;1.83;;
18174;SDS011;9212;50.894;16.714;2023-07-30T09:20:05;2.20;;;1.70;;
18174;SDS011;9212;50.894;16.714;2023-07-30T09:22:33;4.47;;;1.90;;
18174;SDS011;9212;50.894;16.714;2023-07-30T09:25:03;1.60;;;1.50;;
18174;SDS011;9212;50.894;16.714;2023-07-30T09:27:31;1.70;;;1.60;;
18174;SDS011;9212;50.894;16.714;2023-07-30T09:30:00;1.60;;;1.50;;
18174;SDS011;9212;50.894;16.714;2023-07-30T09:32:28;2.60;;;2.40;;
18174;SDS011;9212;50.894;16.714;2023-07-30T09:34:55;1.67;;;1.40;;
18174;SDS011;9212;50.894;16.714;2023-07-30T09:37:22;1.63;;;1.52;;
18174;SDS011;9212;50.894;16.714;2023-07-30T09:39:49;1.65;;;1.55;;
18174;SDS011;9212;50.894;16.714;2023-07-30T09:42:18;1.60;;;1.50;;
18174;SDS011;9212;50.894;16.714;2023-07-30T09:44:46;1.75;;;1.50;;
18174;SDS011;9212;50.894;16.714;2023-07-30T09:47:14;1.60;;;1.50;;
18174;SDS011;9212;50.894;16.714;2023-07-30T09:49:41;1.50;;;1.40;;
18174;SDS011;9212;50.894;16.714;2023-07-30T09:52:09;1.70;;;1.60;;
18174;SDS011;9212;50.894;16.714;2023-07-30T09:54:37;2.45;;;1.20;;
18174;SDS011;9212;50.894;16.714;2023-07-30T09:57:05;1.30;;;1.20;;
18174;SDS011;9212;50.894;16.714;2023-07-30T09:59:34;1.35;;;1.25;;
18174;SDS011;9212;50.894;16.714;2023-07-30T10:02:03;1.48;;;1.30;;
18174;SDS011;9212;50.894;16.714;2023-07-30T10:04:31;1.40;;;1.30;;
18174;SDS011;9212;50.894;16.714;2023-07-30T10:06:59;1.60;;;1.25;;
18174;SDS011;9212;50.894;16.714;2023-07-30T10:09:29;1.38;;;1.27;;
18174;SDS011;9212;50.894;16.714;2023-07-30T10:11:57;1.38;;;1.27;;
18174;SDS011;9212;50.894;16.714;2023-07-30T10:14:25;2.10;;;1.40;;
18174;SDS011;9212;50.894;16.714;2023-07-30T10:16:55;1.73;;;1.40;;
18174;SDS011;9212;50.894;16.714;2023-07-30T10:19:22;2.00;;;1.80;;
18174;SDS011;9212;50.894;16.714;2023-07-30T10:21:50;1.48;;;1.30;;
18174;SDS011;9212;50.894;16.714;2023-07-30T10:24:17;3.97;;;1.42;;
18174;SDS011;9212;50.894;16.714;2023-07-30T10:26:46;2.80;;;1.55;;
18174;SDS011;9212;50.894;16.714;2023-07-30T10:29:13;6.40;;;2.13;;
18174;SDS011;9212;50.894;16.714;2023-07-30T10:31:41;4.80;;;2.60;;
18174;SDS011;9212;50.894;16.714;2023-07-30T10:34:10;4.10;;;1.98;;
18174;SDS011;9212;50.894;16.714;2023-07-30T10:36:42;5.38;;;2.20;;
18174;SDS011;9212;50.894;16.714;2023-07-30T10:39:14;10.25;;;2.95;;
18174;SDS011;9212;50.894;16.714;2023-07-30T10:41:42;6.57;;;2.30;;
18174;SDS011;9212;50.894;16.714;2023-07-30T10:44:17;4.15;;;2.22;;
18174;SDS011;9212;50.894;16.714;2023-07-30T10:46:44;3.63;;;2.05;;
18174;SDS011;9212;50.894;16.714;2023-07-30T10:49:13;4.07;;;2.00;;
18174;SDS011;9212;50.894;16.714;2023-07-30T10:51:40;3.53;;;2.10;;
18174;SDS011;9212;50.894;16.714;2023-07-30T10:54:07;3.67;;;1.80;;
18174;SDS011;9212;50.894;16.714;2023-07-30T10:56:35;2.88;;;1.80;;
18174;SDS011;9212;50.894;16.714;2023-07-30T10:59:04;3.35;;;2.10;;
18174;SDS011;9212;50.894;16.714;2023-07-30T11:01:35;4.55;;;1.77;;
18174;SDS011;9212;50.894;16.714;2023-07-30T11:04:05;2.40;;;1.80;;
18174;SDS011;9212;50.894;16.714;2023-07-30T11:06:36;2.90;;;2.15;;
18174;SDS011;9212;50.894;16.714;2023-07-30T11:09:03;1.80;;;1.70;;
18174;SDS011;9212;50.894;16.714;2023-07-30T11:11:31;3.50;;;1.88;;
18174;SDS011;9212;50.894;16.714;2023-07-30T11:13:58;2.20;;;2.10;;
18174;SDS011;9212;50.894;16.714;2023-07-30T11:16:25;2.33;;;2.13;;
18174;SDS011;9212;50.894;16.714;2023-07-30T11:18:53;1.73;;;1.63;;
18174;SDS011;9212;50.894;16.714;2023-07-30T11:21:21;2.10;;;1.90;;
18174;SDS011;9212;50.894;16.714;2023-07-30T11:23:50;3.50;;;2.25;;
18174;SDS011;9212;50.894;16.714;2023-07-30T11:26:19;3.17;;;2.10;;
18174;SDS011;9212;50.894;16.714;2023-07-30T11:28:46;3.13;;;2.10;;
18174;SDS011;9212;50.894;16.714;2023-07-30T11:31:19;8.55;;;2.58;;
18174;SDS011;9212;50.894;16.714;2023-07-30T11:33:49;16.60;;;3.38;;
18174;SDS011;9212;50.894;16.714;2023-07-30T11:36:18;12.15;;;2.50;;
18174;SDS011;9212;50.894;16.714;2023-07-30T11:38:46;4.07;;;2.60;;
18174;SDS011;9212;50.894;16.714;2023-07-30T11:41:18;9.32;;;3.05;;
18174;SDS011;9212;50.894;16.714;2023-07-30T11:43:47;0.82;;;0.82;;
18174;SDS011;9212;50.894;16.714;2023-07-30T11:46:14;0.40;;;0.38;;
18174;SDS011;9212;50.894;16.714;2023-07-30T11:48:44;0.20;;;0.20;;
18174;SDS011;9212;50.894;16.714;2023-07-30T11:51:21;0.20;;;0.20;;
18174;SDS011;9212;50.894;16.714;2023-07-30T11:53:50;0.20;;;0.20;;
18174;SDS011;9212;50.894;16.714;2023-07-30T11:56:24;0.17;;;0.17;;
18174;SDS011;9212;50.894;16.714;2023-07-30T11:58:53;0.10;;;0.10;;
18174;SDS011;9212;50.894;16.714;2023-07-30T12:01:22;0.28;;;0.28;;
18174;SDS011;9212;50.894;16.714;2023-07-30T12:03:50;0.13;;;0.13;;
18174;SDS011;9212;50.894;16.714;2023-07-30T12:06:17;0.30;;;0.30;;
18174;SDS011;9212;50.894;16.714;2023-07-30T12:08:44;0.20;;;0.20;;
18174;SDS011;9212;50.894;16.714;2023-07-30T12:11:11;0.50;;;0.50;;
18174;SDS011;9212;50.894;16.714;2023-07-30T12:13:44;0.30;;;0.30;;
18174;SDS011;9212;50.894;16.714;2023-07-30T12:16:11;0.20;;;0.20;;
18174;SDS011;9212;50.894;16.714;2023-07-30T12:18:39;0.20;;;0.20;;
18174;SDS011;9212;50.894;16.714;2023-07-30T12:21:07;0.70;;;0.63;;
18174;SDS011;9212;50.894;16.714;2023-07-30T12:23:36;0.22;;;0.22;;
18174;SDS011;9212;50.894;16.714;2023-07-30T12:26:03;0.43;;;0.43;;
18174;SDS011;9212;50.894;16.714;2023-07-30T12:28:31;0.20;;;0.20;;
18174;SDS011;9212;50.894;16.714;2023-07-30T12:31:02;0.25;;;0.25;;
18174;SDS011;9212;50.894;16.714;2023-07-30T12:33:30;0.10;;;0.10;;
18174;SDS011;9212;50.894;16.714;2023-07-30T12:35:57;0.32;;;0.32;;
18174;SDS011;9212;50.894;16.714;2023-07-30T12:38:25;1.58;;;1.48;;
18174;SDS011;9212;50.894;16.714;2023-07-30T12:40:52;0.57;;;0.57;;
18174;SDS011;9212;50.894;16.714;2023-07-30T12:43:19;1.00;;;0.63;;
18174;SDS011;9212;50.894;16.714;2023-07-30T12:45:46;0.40;;;0.40;;
18174;SDS011;9212;50.894;16.714;2023-07-30T12:48:15;0.38;;;0.38;;
18174;SDS011;9212;50.894;16.714;2023-07-30T12:50:42;0.47;;;0.47;;
18174;SDS011;9212;50.894;16.714;2023-07-30T12:53:10;0.35;;;0.35;;
18174;SDS011;9212;50.894;16.714;2023-07-30T12:55:37;0.52;;;0.52;;
18174;SDS011;9212;50.894;16.714;2023-07-30T12:58:05;0.30;;;0.30;;
18174;SDS011;9212;50.894;16.714;2023-07-30T13:00:33;0.20;;;0.20;;
18174;SDS011;9212;50.894;16.714;2023-07-30T13:03:00;0.60;;;0.60;;
18174;SDS011;9212;50.894;16.714;2023-07-30T13:05:29;0.45;;;0.45;;
18174;SDS011;9212;50.894;16.714;2023-07-30T13:07:57;1.08;;;0.60;;
18174;SDS011;9212;50.894;16.714;2023-07-30T13:10:24;0.20;;;0.20;;
18174;SDS011;9212;50.894;16.714;2023-07-30T13:12:51;0.40;;;0.40;;
18174;SDS011;9212;50.894;16.714;2023-07-30T13:15:18;0.65;;;0.60;;
18174;SDS011;9212;50.894;16.714;2023-07-30T13:17:46;0.30;;;0.30;;
18174;SDS011;9212;50.894;16.714;2023-07-30T13:20:13;0.25;;;0.25;;
18174;SDS011;9212;50.894;16.714;2023-07-30T13:22:41;0.30;;;0.30;;
18174;SDS011;9212;50.894;16.714;2023-07-30T13:25:09;0.30;;;0.30;;
18174;SDS011;9212;50.894;16.714;2023-07-30T13:27:36;0.20;;;0.20;;
18174;SDS011;9212;50.894;16.714;2023-07-30T13:30:04;0.38;;;0.38;;
18174;SDS011;9212;50.894;16.714;2023-07-30T13:32:31;0.30;;;0.30;;
18174;SDS011;9212;50.894;16.714;2023-07-30T13:34:58;0.52;;;0.30;;
18174;SDS011;9212;50.894;16.714;2023-07-30T13:37:25;0.25;;;0.25;;
18174;SDS011;9212;50.894;16.714;2023-07-30T13:39:54;0.10;;;0.10;;
18174;SDS011;9212;50.894;16.714;2023-07-30T13:42:21;0.40;;;0.40;;
18174;SDS011;9212;50.894;16.714;2023-07-30T13:44:48;0.40;;;0.40;;
18174;SDS011;9212;50.894;16.714;2023-07-30T13:47:16;0.30;;;0.30;;
18174;SDS011;9212;50.894;16.714;2023-07-30T13:49:43;0.30;;;0.30;;
18174;SDS011;9212;50.894;16.714;2023-07-30T13:52:12;0.20;;;0.20;;
18174;SDS011;9212;50.894;16.714;2023-07-30T13:54:39;0.40;;;0.40;;
18174;SDS011;9212;50.894;16.714;2023-07-30T13:57:11;0.28;;;0.28;;
18174;SDS011;9212;50.894;16.714;2023-07-30T13:59:38;0.55;;;0.55;;
18174;SDS011;9212;50.894;16.714;2023-07-30T14:02:09;1.65;;;0.85;;
18174;SDS011;9212;50.894;16.714;2023-07-30T14:04:37;0.20;;;0.20;;
18174;SDS011;9212;50.894;16.714;2023-07-30T14:07:04;0.20;;;0.20;;
18174;SDS011;9212;50.894;16.714;2023-07-30T14:09:31;0.30;;;0.30;;
18174;SDS011;9212;50.894;16.714;2023-07-30T14:12:01;0.75;;;0.30;;
18174;SDS011;9212;50.894;16.714;2023-07-30T14:14:30;0.35;;;0.35;;
18174;SDS011;9212;50.894;16.714;2023-07-30T14:16:57;0.45;;;0.45;;
18174;SDS011;9212;50.894;16.714;2023-07-30T14:19:25;0.20;;;0.20;;
18174;SDS011;9212;50.894;16.714;2023-07-30T14:21:53;0.30;;;0.30;;
18174;SDS011;9212;50.894;16.714;2023-07-30T14:24:21;0.43;;;0.43;;
18174;SDS011;9212;50.894;16.714;2023-07-30T14:26:49;0.20;;;0.20;;
18174;SDS011;9212;50.894;16.714;2023-07-30T14:29:16;2.17;;;0.40;;
18174;SDS011;9212;50.894;16.714;2023-07-30T14:31:45;0.10;;;0.10;;
18174;SDS011;9212;50.894;16.714;2023-07-30T14:34:12;0.80;;;0.38;;
18174;SDS011;9212;50.894;16.714;2023-07-30T14:36:39;0.50;;;0.50;;
18174;SDS011;9212;50.894;16.714;2023-07-30T14:39:06;0.20;;;0.20;;
18174;SDS011;9212;50.894;16.714;2023-07-30T14:41:34;0.30;;;0.22;;
18174;SDS011;9212;50.894;16.714;2023-07-30T14:44:01;3.53;;;0.82;;
18174;SDS011;9212;50.894;16.714;2023-07-30T14:46:28;0.47;;;0.47;;
18174;SDS011;9212;50.894;16.714;2023-07-30T14:48:57;0.40;;;0.40;;
18174;SDS011;9212;50.894;16.714;2023-07-30T14:51:24;0.32;;;0.32;;